sensor_id;sensor_type;location;lat;lon;timestamp;pressure;altitude;pressure_sealevel;temperature;humidity
10606;BME280;5350;42.698;23.148;2022-11-22T00:00:48;93127.28;;;4.94;100.00
10606;BME280;5350;42.698;23.148;2022-11-22T00:03:14;93140.56;;;4.93;100.00
10606;BME280;5350;42.698;23.148;2022-11-22T00:05:41;93134.63;;;4.72;100.00
10606;BME280;5350;42.698;23.148;2022-11-22T00:08:08;93142.97;;;4.74;100.00
10606;BME280;5350;42.698;23.148;2022-11-22T00:10:36;93152.09;;;4.76;100.00
10606;BME280;5350;42.698;23.148;2022-11-22T00:13:03;93146.09;;;4.81;100.00
10606;BME280;5350;42.698;23.148;2022-11-22T00:15:29;93149.75;;;4.70;100.00
10606;BME280;5350;42.698;23.148;2022-11-22T00:17:56;93149.22;;;4.68;100.00
10606;BME280;5350;42.698;23.148;2022-11-22T00:20:23;93147.69;;;4.62;100.00
10606;BME280;5350;42.698;23.148;2022-11-22T00:22:50;93144.56;;;4.60;100.00
10606;BME280;5350;42.698;23.148;2022-11-22T00:25:17;93142.47;;;4.62;100.00
10606;BME280;5350;42.698;23.148;2022-11-22T00:27:45;93127.88;;;4.66;100.00
10606;BME280;5350;42.698;23.148;2022-11-22T00:30:11;93139.31;;;4.70;100.00
10606;BME280;5350;42.698;23.148;2022-11-22T00:32:38;93132.81;;;4.77;100.00
10606;BME280;5350;42.698;23.148;2022-11-22T00:35:06;93130.72;;;4.74;100.00
10606;BME280;5350;42.698;23.148;2022-11-22T00:37:32;93131.00;;;4.68;100.00
10606;BME280;5350;42.698;23.148;2022-11-22T00:39:59;93125.78;;;4.68;100.00
10606;BME280;5350;42.698;23.148;2022-11-22T00:42:26;93137.25;;;4.72;100.00
10606;BME280;5350;42.698;23.148;2022-11-22T00:44:54;93138.53;;;4.69;100.00
10606;BME280;5350;42.698;23.148;2022-11-22T00:47:21;93131.25;;;4.66;100.00
10606;BME280;5350;42.698;23.148;2022-11-22T00:49:48;93129.94;;;4.74;100.00
10606;BME280;5350;42.698;23.148;2022-11-22T00:52:14;93133.09;;;4.71;100.00
10606;BME280;5350;42.698;23.148;2022-11-22T00:54:41;93133.63;;;4.63;100.00
10606;BME280;5350;42.698;23.148;2022-11-22T00:57:09;93152.38;;;4.65;100.00
10606;BME280;5350;42.698;23.148;2022-11-22T00:59:36;93144.03;;;4.63;100.00
10606;BME280;5350;42.698;23.148;2022-11-22T01:02:04;93147.41;;;4.68;100.00
10606;BME280;5350;42.698;23.148;2022-11-22T01:04:31;93137.50;;;4.65;100.00
10606;BME280;5350;42.698;23.148;2022-11-22T01:06:58;93133.31;;;4.69;100.00
10606;BME280;5350;42.698;23.148;2022-11-22T01:09:24;93124.22;;;4.72;100.00
10606;BME280;5350;42.698;23.148;2022-11-22T01:11:51;93132.53;;;4.74;100.00
10606;BME280;5350;42.698;23.148;2022-11-22T01:14:18;93132.81;;;4.72;100.00
10606;BME280;5350;42.698;23.148;2022-11-22T01:16:46;93128.38;;;4.73;100.00
10606;BME280;5350;42.698;23.148;2022-11-22T01:19:14;93126.31;;;4.60;100.00
10606;BME280;5350;42.698;23.148;2022-11-22T01:21:41;93113.09;;;4.46;100.00
10606;BME280;5350;42.698;23.148;2022-11-22T01:24:08;93119.06;;;4.42;100.00
10606;BME280;5350;42.698;23.148;2022-11-22T01:26:36;93131.31;;;4.46;100.00
10606;BME280;5350;42.698;23.148;2022-11-22T01:29:03;93123.75;;;4.40;100.00
10606;BME280;5350;42.698;23.148;2022-11-22T01:31:30;93127.41;;;4.39;100.00
10606;BME280;5350;42.698;23.148;2022-11-22T01:33:57;93125.84;;;4.38;100.00
10606;BME280;5350;42.698;23.148;2022-11-22T01:36:26;93130.00;;;4.24;100.00
10606;BME280;5350;42.698;23.148;2022-11-22T01:38:53;93116.50;;;4.12;100.00
10606;BME280;5350;42.698;23.148;2022-11-22T01:41:20;93108.19;;;3.89;100.00
10606;BME280;5350;42.698;23.148;2022-11-22T01:43:47;93116.50;;;3.81;100.00
10606;BME280;5350;42.698;23.148;2022-11-22T01:46:21;93113.34;;;3.69;100.00
10606;BME280;5350;42.698;23.148;2022-11-22T01:48:53;93110.47;;;3.46;100.00
10606;BME280;5350;42.698;23.148;2022-11-22T01:51:27;93106.56;;;3.43;100.00
10606;BME280;5350;42.698;23.148;2022-11-22T01:53:58;93084.91;;;3.17;100.00
10606;BME280;5350;42.698;23.148;2022-11-22T01:56:27;93093.50;;;3.18;100.00
10606;BME280;5350;42.698;23.148;2022-11-22T01:58:57;93103.09;;;3.07;100.00
10606;BME280;5350;42.698;23.148;2022-11-22T02:01:26;93107.50;;;3.02;100.00
10606;BME280;5350;42.698;23.148;2022-11-22T02:03:55;93106.97;;;3.00;100.00
10606;BME280;5350;42.698;23.148;2022-11-22T02:06:38;93100.13;;;2.84;100.00
10606;BME280;5350;42.698;23.148;2022-11-22T02:09:10;93102.75;;;2.89;100.00
10606;BME280;5350;42.698;23.148;2022-11-22T02:11:40;93095.53;;;3.01;100.00
10606;BME280;5350;42.698;23.148;2022-11-22T02:14:09;93101.28;;;3.13;100.00
10606;BME280;5350;42.698;23.148;2022-11-22T02:16:38;93103.41;;;3.21;100.00
10606;BME280;5350;42.698;23.148;2022-11-22T02:19:09;93108.06;;;3.19;100.00
10606;BME280;5350;42.698;23.148;2022-11-22T02:21:41;93098.97;;;3.21;100.00
10606;BME280;5350;42.698;23.148;2022-11-22T02:24:15;93107.56;;;3.27;100.00
10606;BME280;5350;42.698;23.148;2022-11-22T02:26:45;93086.50;;;3.18;100.00
10606;BME280;5350;42.698;23.148;2022-11-22T02:29:12;93097.16;;;3.27;100.00
10606;BME280;5350;42.698;23.148;2022-11-22T02:31:41;93087.03;;;3.31;100.00
10606;BME280;5350;42.698;23.148;2022-11-22T02:34:08;93096.66;;;3.25;100.00
10606;BME280;5350;42.698;23.148;2022-11-22T02:36:38;93103.41;;;3.26;100.00
10606;BME280;5350;42.698;23.148;2022-11-22T02:39:08;93089.88;;;3.24;100.00
10606;BME280;5350;42.698;23.148;2022-11-22T02:41:37;93094.06;;;3.35;100.00
10606;BME280;5350;42.698;23.148;2022-11-22T02:44:06;93070.66;;;3.15;100.00
10606;BME280;5350;42.698;23.148;2022-11-22T02:46:33;93094.56;;;3.27;100.00
10606;BME280;5350;42.698;23.148;2022-11-22T02:48:59;93098.19;;;3.26;100.00
10606;BME280;5350;42.698;23.148;2022-11-22T02:51:26;93096.38;;;3.27;100.00
10606;BME280;5350;42.698;23.148;2022-11-22T02:53:53;93096.13;;;3.23;100.00
10606;BME280;5350;42.698;23.148;2022-11-22T02:56:21;93099.41;;;2.93;100.00
10606;BME280;5350;42.698;23.148;2022-11-22T02:58:47;93094.38;;;2.67;100.00
10606;BME280;5350;42.698;23.148;2022-11-22T03:01:16;93095.28;;;2.46;100.00
10606;BME280;5350;42.698;23.148;2022-11-22T03:03:42;93101.28;;;2.09;100.00
10606;BME280;5350;42.698;23.148;2022-11-22T03:06:09;93084.19;;;2.08;100.00
10606;BME280;5350;42.698;23.148;2022-11-22T03:08:36;93071.75;;;2.15;100.00
10606;BME280;5350;42.698;23.148;2022-11-22T03:11:02;93088.00;;;2.42;100.00
10606;BME280;5350;42.698;23.148;2022-11-22T03:13:29;93086.25;;;2.53;100.00
10606;BME280;5350;42.698;23.148;2022-11-22T03:15:56;93089.13;;;2.62;100.00
10606;BME280;5350;42.698;23.148;2022-11-22T03:18:24;93084.72;;;2.62;100.00
10606;BME280;5350;42.698;23.148;2022-11-22T03:20:51;93080.34;;;2.68;100.00
10606;BME280;5350;42.698;23.148;2022-11-22T03:23:17;93076.19;;;2.72;100.00
10606;BME280;5350;42.698;23.148;2022-11-22T03:25:44;93077.25;;;2.76;100.00
10606;BME280;5350;42.698;23.148;2022-11-22T03:28:11;93085.03;;;2.71;100.00
10606;BME280;5350;42.698;23.148;2022-11-22T03:30:40;93089.63;;;2.54;100.00
10606;BME280;5350;42.698;23.148;2022-11-22T03:33:08;93088.09;;;2.16;100.00
10606;BME280;5350;42.698;23.148;2022-11-22T03:35:36;93075.03;;;1.96;100.00
10606;BME280;5350;42.698;23.148;2022-11-22T03:38:03;93043.75;;;1.76;100.00
10606;BME280;5350;42.698;23.148;2022-11-22T03:40:30;93044.47;;;1.71;100.00
10606;BME280;5350;42.698;23.148;2022-11-22T03:42:58;93076.00;;;1.90;100.00
10606;BME280;5350;42.698;23.148;2022-11-22T03:45:26;93072.44;;;2.01;100.00
10606;BME280;5350;42.698;23.148;2022-11-22T03:47:54;93069.44;;;1.77;100.00
10606;BME280;5350;42.698;23.148;2022-11-22T03:50:21;93072.97;;;2.03;100.00
10606;BME280;5350;42.698;23.148;2022-11-22T03:52:49;93074.25;;;2.00;100.00
10606;BME280;5350;42.698;23.148;2022-11-22T03:55:16;93075.09;;;2.11;100.00
10606;BME280;5350;42.698;23.148;2022-11-22T03:57:43;93083.97;;;2.20;100.00
10606;BME280;5350;42.698;23.148;2022-11-22T04:00:11;93092.50;;;2.10;100.00
10606;BME280;5350;42.698;23.148;2022-11-22T04:02:38;93089.91;;;2.10;100.00
10606;BME280;5350;42.698;23.148;2022-11-22T04:05:05;93094.31;;;2.10;100.00
10606;BME280;5350;42.698;23.148;2022-11-22T04:07:32;93091.75;;;2.15;100.00
10606;BME280;5350;42.698;23.148;2022-11-22T04:10:00;93087.31;;;2.15;100.00
10606;BME280;5350;42.698;23.148;2022-11-22T04:12:27;93089.91;;;2.10;100.00
10606;BME280;5350;42.698;23.148;2022-11-22T04:14:54;93093.31;;;2.16;100.00
10606;BME280;5350;42.698;23.148;2022-11-22T04:17:33;93092.38;;;1.95;100.00
10606;BME280;5350;42.698;23.148;2022-11-22T04:20:15;93095.09;;;2.15;100.00
10606;BME280;5350;42.698;23.148;2022-11-22T04:23:02;93096.63;;;2.11;100.00
10606;BME280;5350;42.698;23.148;2022-11-22T04:25:32;93109.66;;;2.16;100.00
10606;BME280;5350;42.698;23.148;2022-11-22T04:27:58;93101.03;;;1.74;100.00
10606;BME280;5350;42.698;23.148;2022-11-22T04:30:26;93109.53;;;2.01;100.00
10606;BME280;5350;42.698;23.148;2022-11-22T04:33:06;93110.13;;;2.08;100.00
10606;BME280;5350;42.698;23.148;2022-11-22T04:35:33;93109.34;;;2.13;100.00
10606;BME280;5350;42.698;23.148;2022-11-22T04:38:00;93110.50;;;2.27;100.00
10606;BME280;5350;42.698;23.148;2022-11-22T04:40:27;93112.00;;;2.18;100.00
10606;BME280;5350;42.698;23.148;2022-11-22T04:42:55;93115.84;;;2.10;100.00
10606;BME280;5350;42.698;23.148;2022-11-22T04:45:39;93120.78;;;2.12;100.00
10606;BME280;5350;42.698;23.148;2022-11-22T04:48:05;93097.78;;;1.89;100.00
10606;BME280;5350;42.698;23.148;2022-11-22T04:50:32;93121.03;;;2.10;100.00
10606;BME280;5350;42.698;23.148;2022-11-22T04:53:17;93120.03;;;2.16;100.00
10606;BME280;5350;42.698;23.148;2022-11-22T04:55:45;93132.47;;;2.14;100.00
10606;BME280;5350;42.698;23.148;2022-11-22T04:58:14;93130.69;;;2.20;100.00
10606;BME280;5350;42.698;23.148;2022-11-22T05:00:41;93143.44;;;2.26;100.00
10606;BME280;5350;42.698;23.148;2022-11-22T05:03:08;93148.53;;;2.11;100.00
10606;BME280;5350;42.698;23.148;2022-11-22T05:05:36;93163.16;;;2.22;100.00
10606;BME280;5350;42.698;23.148;2022-11-22T05:08:03;93158.94;;;2.16;100.00
10606;BME280;5350;42.698;23.148;2022-11-22T05:10:31;93156.28;;;2.06;100.00
10606;BME280;5350;42.698;23.148;2022-11-22T05:13:20;93161.91;;;1.98;100.00
10606;BME280;5350;42.698;23.148;2022-11-22T05:15:48;93157.84;;;2.07;100.00
10606;BME280;5350;42.698;23.148;2022-11-22T05:18:16;93165.03;;;2.00;100.00
10606;BME280;5350;42.698;23.148;2022-11-22T05:20:44;93158.03;;;1.69;100.00
10606;BME280;5350;42.698;23.148;2022-11-22T05:23:11;93161.78;;;1.83;100.00
10606;BME280;5350;42.698;23.148;2022-11-22T05:25:55;93147.88;;;1.94;100.00
10606;BME280;5350;42.698;23.148;2022-11-22T05:28:26;93149.44;;;1.95;100.00
10606;BME280;5350;42.698;23.148;2022-11-22T05:30:54;93145.81;;;1.96;100.00
10606;BME280;5350;42.698;23.148;2022-11-22T05:33:20;93150.75;;;1.98;100.00
10606;BME280;5350;42.698;23.148;2022-11-22T05:35:47;93144.78;;;1.97;100.00
10606;BME280;5350;42.698;23.148;2022-11-22T05:38:14;93145.31;;;1.99;100.00
10606;BME280;5350;42.698;23.148;2022-11-22T05:40:41;93150.06;;;2.07;100.00
10606;BME280;5350;42.698;23.148;2022-11-22T05:43:08;93137.09;;;2.07;100.00
10606;BME280;5350;42.698;23.148;2022-11-22T05:45:36;93156.91;;;2.23;100.00
10606;BME280;5350;42.698;23.148;2022-11-22T05:48:03;93157.22;;;2.27;100.00
10606;BME280;5350;42.698;23.148;2022-11-22T05:50:29;93163.25;;;2.37;100.00
10606;BME280;5350;42.698;23.148;2022-11-22T05:52:59;93154.16;;;2.35;100.00
10606;BME280;5350;42.698;23.148;2022-11-22T05:55:26;93148.69;;;2.31;100.00
10606;BME280;5350;42.698;23.148;2022-11-22T05:57:53;93138.56;;;2.35;100.00
10606;BME280;5350;42.698;23.148;2022-11-22T06:00:20;93143.03;;;2.44;100.00
10606;BME280;5350;42.698;23.148;2022-11-22T06:02:48;93156.03;;;2.44;100.00
10606;BME280;5350;42.698;23.148;2022-11-22T06:05:15;93153.88;;;2.31;100.00
10606;BME280;5350;42.698;23.148;2022-11-22T06:07:41;93155.47;;;2.37;100.00
10606;BME280;5350;42.698;23.148;2022-11-22T06:10:09;93157.06;;;2.43;100.00
10606;BME280;5350;42.698;23.148;2022-11-22T06:12:35;93161.25;;;2.50;100.00
10606;BME280;5350;42.698;23.148;2022-11-22T06:15:03;93156.06;;;2.50;100.00
10606;BME280;5350;42.698;23.148;2022-11-22T06:17:29;93153.47;;;2.55;100.00
10606;BME280;5350;42.698;23.148;2022-11-22T06:19:57;93143.88;;;2.55;100.00
10606;BME280;5350;42.698;23.148;2022-11-22T06:22:24;93155.59;;;2.58;100.00
10606;BME280;5350;42.698;23.148;2022-11-22T06:24:51;93150.97;;;2.65;100.00
10606;BME280;5350;42.698;23.148;2022-11-22T06:27:18;93154.63;;;2.69;100.00
10606;BME280;5350;42.698;23.148;2022-11-22T06:29:44;93154.66;;;2.79;100.00
10606;BME280;5350;42.698;23.148;2022-11-22T06:32:11;93168.72;;;2.83;100.00
10606;BME280;5350;42.698;23.148;2022-11-22T06:34:38;93179.06;;;2.78;100.00
10606;BME280;5350;42.698;23.148;2022-11-22T06:37:06;93177.47;;;2.67;100.00
10606;BME280;5350;42.698;23.148;2022-11-22T06:39:33;93178.56;;;2.81;100.00
10606;BME280;5350;42.698;23.148;2022-11-22T06:42:00;93181.19;;;2.86;100.00
10606;BME280;5350;42.698;23.148;2022-11-22T06:44:27;93180.25;;;3.02;100.00
10606;BME280;5350;42.698;23.148;2022-11-22T06:46:54;93175.31;;;3.05;100.00
10606;BME280;5350;42.698;23.148;2022-11-22T06:49:20;93171.19;;;3.14;100.00
10606;BME280;5350;42.698;23.148;2022-11-22T06:51:47;93174.31;;;3.16;100.00
10606;BME280;5350;42.698;23.148;2022-11-22T06:54:15;93169.91;;;3.22;100.00
10606;BME280;5350;42.698;23.148;2022-11-22T06:56:42;93158.53;;;3.33;100.00
10606;BME280;5350;42.698;23.148;2022-11-22T06:59:09;93162.19;;;3.42;100.00
10606;BME280;5350;42.698;23.148;2022-11-22T07:01:36;93165.31;;;3.49;100.00
10606;BME280;5350;42.698;23.148;2022-11-22T07:04:03;93154.94;;;3.49;100.00
10606;BME280;5350;42.698;23.148;2022-11-22T07:06:31;93165.09;;;3.66;100.00
10606;BME280;5350;42.698;23.148;2022-11-22T07:09:00;93157.81;;;3.68;100.00
10606;BME280;5350;42.698;23.148;2022-11-22T07:11:30;93176.59;;;3.90;100.00
10606;BME280;5350;42.698;23.148;2022-11-22T07:13:58;93163.09;;;3.98;100.00
10606;BME280;5350;42.698;23.148;2022-11-22T07:16:25;93169.06;;;4.09;100.00
10606;BME280;5350;42.698;23.148;2022-11-22T07:18:52;93169.59;;;4.16;100.00
10606;BME280;5350;42.698;23.148;2022-11-22T07:21:20;93169.84;;;4.24;100.00
10606;BME280;5350;42.698;23.148;2022-11-22T07:23:48;93158.66;;;4.19;100.00
10606;BME280;5350;42.698;23.148;2022-11-22T07:26:17;93172.72;;;4.13;100.00
10606;BME280;5350;42.698;23.148;2022-11-22T07:28:46;93164.66;;;4.14;100.00
10606;BME280;5350;42.698;23.148;2022-11-22T07:31:14;93165.69;;;4.08;100.00
10606;BME280;5350;42.698;23.148;2022-11-22T07:33:41;93169.84;;;4.24;100.00
10606;BME280;5350;42.698;23.148;2022-11-22T07:36:09;93160.72;;;4.37;100.00
10606;BME280;5350;42.698;23.148;2022-11-22T07:38:36;93158.63;;;4.49;100.00
10606;BME280;5350;42.698;23.148;2022-11-22T07:41:04;93150.00;;;4.63;100.00
10606;BME280;5350;42.698;23.148;2022-11-22T07:43:32;93140.63;;;4.72;100.00
10606;BME280;5350;42.698;23.148;2022-11-22T07:46:00;93158.88;;;4.77;100.00
10606;BME280;5350;42.698;23.148;2022-11-22T07:48:28;93174.78;;;4.71;100.00
10606;BME280;5350;42.698;23.148;2022-11-22T07:50:54;93182.31;;;4.77;100.00
10606;BME280;5350;42.698;23.148;2022-11-22T07:53:21;93187.75;;;4.91;100.00
10606;BME280;5350;42.698;23.148;2022-11-22T07:55:48;93177.56;;;4.95;100.00
10606;BME280;5350;42.698;23.148;2022-11-22T07:58:14;93185.41;;;4.90;100.00
10606;BME280;5350;42.698;23.148;2022-11-22T08:00:41;93171.03;;;4.97;100.00
10606;BME280;5350;42.698;23.148;2022-11-22T08:03:09;93171.28;;;5.01;100.00
10606;BME280;5350;42.698;23.148;2022-11-22T08:05:36;93166.31;;;5.19;100.00
10606;BME280;5350;42.698;23.148;2022-11-22T08:08:02;93156.34;;;5.31;100.00
10606;BME280;5350;42.698;23.148;2022-11-22T08:10:29;93162.25;;;5.52;100.00
10606;BME280;5350;42.698;23.148;2022-11-22T08:12:58;93147.31;;;5.62;100.00
10606;BME280;5350;42.698;23.148;2022-11-22T08:15:25;93150.59;;;5.78;100.00
10606;BME280;5350;42.698;23.148;2022-11-22T08:17:53;93144.53;;;5.98;100.00
10606;BME280;5350;42.698;23.148;2022-11-22T08:20:21;93139.72;;;6.10;100.00
10606;BME280;5350;42.698;23.148;2022-11-22T08:22:47;93139.50;;;6.06;100.00
10606;BME280;5350;42.698;23.148;2022-11-22T08:25:14;93129.28;;;6.10;100.00
10606;BME280;5350;42.698;23.148;2022-11-22T08:27:42;93131.47;;;5.98;100.00
10606;BME280;5350;42.698;23.148;2022-11-22T08:30:10;93120.81;;;5.89;100.00
10606;BME280;5350;42.698;23.148;2022-11-22T08:32:37;93112.72;;;5.91;100.00
10606;BME280;5350;42.698;23.148;2022-11-22T08:35:04;93118.94;;;5.95;100.00
10606;BME280;5350;42.698;23.148;2022-11-22T08:37:32;93063.63;;;5.54;100.00
10606;BME280;5350;42.698;23.148;2022-11-22T08:39:59;93107.53;;;5.81;100.00
10606;BME280;5350;42.698;23.148;2022-11-22T08:42:26;93108.09;;;5.78;100.00
10606;BME280;5350;42.698;23.148;2022-11-22T08:44:53;93110.16;;;5.86;100.00
10606;BME280;5350;42.698;23.148;2022-11-22T08:47:20;93109.56;;;5.94;100.00
10606;BME280;5350;42.698;23.148;2022-11-22T08:49:46;93116.09;;;5.96;100.00
10606;BME280;5350;42.698;23.148;2022-11-22T08:52:13;93126.44;;;6.06;100.00
10606;BME280;5350;42.698;23.148;2022-11-22T08:54:41;93116.44;;;6.13;100.00
10606;BME280;5350;42.698;23.148;2022-11-22T08:57:08;93110.97;;;6.15;100.00
10606;BME280;5350;42.698;23.148;2022-11-22T08:59:35;93117.13;;;6.29;100.00
10606;BME280;5350;42.698;23.148;2022-11-22T09:02:02;93123.00;;;6.44;100.00
10606;BME280;5350;42.698;23.148;2022-11-22T09:04:29;93116.06;;;6.59;100.00
10606;BME280;5350;42.698;23.148;2022-11-22T09:06:56;93104.41;;;6.75;100.00
10606;BME280;5350;42.698;23.148;2022-11-22T09:09:24;93107.66;;;6.90;100.00
10606;BME280;5350;42.698;23.148;2022-11-22T09:11:52;93106.78;;;6.95;100.00
10606;BME280;5350;42.698;23.148;2022-11-22T09:14:19;93095.91;;;6.88;100.00
10606;BME280;5350;42.698;23.148;2022-11-22T09:16:47;93106.13;;;7.08;100.00
10606;BME280;5350;42.698;23.148;2022-11-22T09:19:14;93101.09;;;7.11;100.00
10606;BME280;5350;42.698;23.148;2022-11-22T09:21:41;93098.69;;;7.39;100.00
10606;BME280;5350;42.698;23.148;2022-11-22T09:24:07;93105.97;;;7.42;100.00
10606;BME280;5350;42.698;23.148;2022-11-22T09:26:34;93092.47;;;7.53;100.00
10606;BME280;5350;42.698;23.148;2022-11-22T09:29:02;93093.53;;;7.71;100.00
10606;BME280;5350;42.698;23.148;2022-11-22T09:31:30;93096.09;;;7.76;100.00
10606;BME280;5350;42.698;23.148;2022-11-22T09:33:56;93080.94;;;7.91;100.00
10606;BME280;5350;42.698;23.148;2022-11-22T09:36:24;93086.25;;;8.05;100.00
10606;BME280;5350;42.698;23.148;2022-11-22T09:38:52;93094.50;;;8.12;100.00
10606;BME280;5350;42.698;23.148;2022-11-22T09:41:29;93084.34;;;8.24;100.00
10606;BME280;5350;42.698;23.148;2022-11-22T09:44:08;93063.34;;;8.29;100.00
10606;BME280;5350;42.698;23.148;2022-11-22T09:46:45;93069.13;;;8.26;100.00
10606;BME280;5350;42.698;23.148;2022-11-22T09:49:27;93067.53;;;8.30;100.00
10606;BME280;5350;42.698;23.148;2022-11-22T09:52:01;93071.50;;;8.41;100.00
10606;BME280;5350;42.698;23.148;2022-11-22T09:54:39;93070.34;;;8.47;100.00
10606;BME280;5350;42.698;23.148;2022-11-22T09:57:12;93070.72;;;8.27;100.00
10606;BME280;5350;42.698;23.148;2022-11-22T09:59:45;93062.28;;;8.12;100.00
10606;BME280;5350;42.698;23.148;2022-11-22T10:02:16;93068.00;;;8.14;100.00
10606;BME280;5350;42.698;23.148;2022-11-22T10:04:50;93057.91;;;8.26;100.00
10606;BME280;5350;42.698;23.148;2022-11-22T10:07:23;93062.00;;;8.45;100.00
10606;BME280;5350;42.698;23.148;2022-11-22T10:09:56;93063.34;;;8.43;100.00
10606;BME280;5350;42.698;23.148;2022-11-22T10:12:34;93044.75;;;8.44;100.00
10606;BME280;5350;42.698;23.148;2022-11-22T10:15:09;93029.00;;;8.12;100.00
10606;BME280;5350;42.698;23.148;2022-11-22T10:17:51;93051.59;;;8.08;100.00
10606;BME280;5350;42.698;23.148;2022-11-22T10:20:18;93045.22;;;8.14;100.00
10606;BME280;5350;42.698;23.148;2022-11-22T10:22:47;93024.44;;;8.04;100.00
10606;BME280;5350;42.698;23.148;2022-11-22T10:25:16;93025.22;;;8.18;100.00
10606;BME280;5350;42.698;23.148;2022-11-22T10:27:46;93026.84;;;8.33;100.00
10606;BME280;5350;42.698;23.148;2022-11-22T10:30:17;93005.91;;;8.46;100.00
10606;BME280;5350;42.698;23.148;2022-11-22T10:32:54;93009.00;;;8.35;100.00
10606;BME280;5350;42.698;23.148;2022-11-22T10:35:33;92999.41;;;8.44;100.00
10606;BME280;5350;42.698;23.148;2022-11-22T10:38:25;93016.28;;;8.51;100.00
10606;BME280;5350;42.698;23.148;2022-11-22T10:41:02;93009.09;;;8.43;100.00
10606;BME280;5350;42.698;23.148;2022-11-22T10:43:40;93011.41;;;8.31;100.00
10606;BME280;5350;42.698;23.148;2022-11-22T10:46:16;93021.34;;;8.16;100.00
10606;BME280;5350;42.698;23.148;2022-11-22T10:48:50;93010.97;;;8.24;100.00
10606;BME280;5350;42.698;23.148;2022-11-22T10:51:23;93014.81;;;8.32;100.00
10606;BME280;5350;42.698;23.148;2022-11-22T10:54:01;93005.50;;;8.39;100.00
10606;BME280;5350;42.698;23.148;2022-11-22T10:56:38;92995.81;;;8.53;100.00
10606;BME280;5350;42.698;23.148;2022-11-22T10:59:21;92996.88;;;8.52;100.00
10606;BME280;5350;42.698;23.148;2022-11-22T11:01:59;93000.75;;;8.68;100.00
10606;BME280;5350;42.698;23.148;2022-11-22T11:04:32;93004.34;;;8.72;97.50
10606;BME280;5350;42.698;23.148;2022-11-22T11:07:01;93001.94;;;8.62;95.57
10606;BME280;5350;42.698;23.148;2022-11-22T11:09:33;93002.81;;;8.71;96.14
10606;BME280;5350;42.698;23.148;2022-11-22T11:12:09;92985.16;;;8.63;96.85
10606;BME280;5350;42.698;23.148;2022-11-22T11:14:40;92995.91;;;8.75;96.19
10606;BME280;5350;42.698;23.148;2022-11-22T11:17:14;92975.78;;;8.84;95.19
10606;BME280;5350;42.698;23.148;2022-11-22T11:19:43;92979.88;;;8.91;94.55
10606;BME280;5350;42.698;23.148;2022-11-22T11:22:15;92996.28;;;8.96;95.06
10606;BME280;5350;42.698;23.148;2022-11-22T11:24:43;92965.22;;;8.90;94.85
10606;BME280;5350;42.698;23.148;2022-11-22T11:27:10;92974.22;;;9.11;92.13
10606;BME280;5350;42.698;23.148;2022-11-22T11:29:40;92974.59;;;9.04;91.98
10606;BME280;5350;42.698;23.148;2022-11-22T11:32:12;92969.19;;;9.01;92.16
10606;BME280;5350;42.698;23.148;2022-11-22T11:34:49;92978.00;;;9.05;94.17
10606;BME280;5350;42.698;23.148;2022-11-22T11:37:22;92971.97;;;9.18;93.47
10606;BME280;5350;42.698;23.148;2022-11-22T11:39:49;92964.59;;;9.20;93.28
10606;BME280;5350;42.698;23.148;2022-11-22T11:42:27;92962.34;;;9.13;92.84
10606;BME280;5350;42.698;23.148;2022-11-22T11:44:54;92958.09;;;9.04;92.11
10606;BME280;5350;42.698;23.148;2022-11-22T11:47:42;92953.81;;;9.08;92.04
10606;BME280;5350;42.698;23.148;2022-11-22T11:50:17;92948.69;;;9.03;91.55
10606;BME280;5350;42.698;23.148;2022-11-22T11:52:49;92946.47;;;8.96;92.29
10606;BME280;5350;42.698;23.148;2022-11-22T11:55:16;92939.94;;;8.94;93.12
10606;BME280;5350;42.698;23.148;2022-11-22T11:57:43;92935.31;;;8.91;94.95
10606;BME280;5350;42.698;23.148;2022-11-22T12:00:19;92927.44;;;8.77;94.01
10606;BME280;5350;42.698;23.148;2022-11-22T12:02:55;92931.59;;;8.92;95.14
10606;BME280;5350;42.698;23.148;2022-11-22T12:05:26;92930.72;;;8.82;95.71
10606;BME280;5350;42.698;23.148;2022-11-22T12:07:53;92932.84;;;8.94;95.99
10606;BME280;5350;42.698;23.148;2022-11-22T12:10:31;92924.88;;;8.99;96.36
10606;BME280;5350;42.698;23.148;2022-11-22T12:13:02;92930.13;;;8.99;95.71
10606;BME280;5350;42.698;23.148;2022-11-22T12:15:37;92929.16;;;8.95;98.17
10606;BME280;5350;42.698;23.148;2022-11-22T12:18:21;92919.09;;;8.89;97.33
10606;BME280;5350;42.698;23.148;2022-11-22T12:20:52;92921.81;;;8.83;99.48
10606;BME280;5350;42.698;23.148;2022-11-22T12:23:25;92921.81;;;8.70;100.00
10606;BME280;5350;42.698;23.148;2022-11-22T12:25:57;92914.75;;;8.57;100.00
10606;BME280;5350;42.698;23.148;2022-11-22T12:28:25;92915.44;;;8.49;100.00
10606;BME280;5350;42.698;23.148;2022-11-22T12:31:03;92866.59;;;8.12;100.00
10606;BME280;5350;42.698;23.148;2022-11-22T12:33:35;92897.59;;;8.37;100.00
10606;BME280;5350;42.698;23.148;2022-11-22T12:36:03;92902.72;;;8.42;100.00
10606;BME280;5350;42.698;23.148;2022-11-22T12:38:39;92899.34;;;8.42;100.00
10606;BME280;5350;42.698;23.148;2022-11-22T12:41:08;92898.38;;;8.38;100.00
10606;BME280;5350;42.698;23.148;2022-11-22T12:43:43;92893.59;;;8.26;100.00
10606;BME280;5350;42.698;23.148;2022-11-22T12:46:15;92887.59;;;8.39;100.00
10606;BME280;5350;42.698;23.148;2022-11-22T12:48:47;92885.06;;;8.07;100.00
10606;BME280;5350;42.698;23.148;2022-11-22T12:51:22;92885.63;;;8.04;100.00
10606;BME280;5350;42.698;23.148;2022-11-22T12:53:51;92890.38;;;8.16;100.00
10606;BME280;5350;42.698;23.148;2022-11-22T12:56:25;92891.34;;;8.06;100.00
10606;BME280;5350;42.698;23.148;2022-11-22T12:58:58;92869.91;;;7.90;100.00
10606;BME280;5350;42.698;23.148;2022-11-22T13:01:29;92889.78;;;7.78;100.00
10606;BME280;5350;42.698;23.148;2022-11-22T13:04:03;92884.72;;;7.81;100.00
10606;BME280;5350;42.698;23.148;2022-11-22T13:06:37;92874.16;;;7.86;100.00
10606;BME280;5350;42.698;23.148;2022-11-22T13:09:11;92875.34;;;7.94;100.00
10606;BME280;5350;42.698;23.148;2022-11-22T13:11:45;92869.75;;;7.55;100.00
10606;BME280;5350;42.698;23.148;2022-11-22T13:14:16;92865.88;;;7.66;100.00